sensor_id;sensor_type;location;lat;lon;timestamp;pressure;altitude;pressure_sealevel;temperature;humidity
7018;BME280;3549;42.162;24.726;2022-12-05T00:02:23;47880.44;;;-141.97;100.00
7018;BME280;3549;42.162;24.726;2022-12-05T00:04:48;47895.81;;;-141.97;100.00
7018;BME280;3549;42.162;24.726;2022-12-05T00:07:13;47888.13;;;-141.97;100.00
7018;BME280;3549;42.162;24.726;2022-12-05T00:09:39;47911.19;;;-141.97;100.00
7018;BME280;3549;42.162;24.726;2022-12-05T00:12:04;47936.19;;;-141.97;100.00
7018;BME280;3549;42.162;24.726;2022-12-05T00:14:30;47761.25;;;-141.97;100.00
7018;BME280;3549;42.162;24.726;2022-12-05T00:16:55;47799.72;;;-141.97;100.00
7018;BME280;3549;42.162;24.726;2022-12-05T00:19:21;47822.78;;;-141.97;100.00
7018;BME280;3549;42.162;24.726;2022-12-05T00:21:47;47924.66;;;-141.97;100.00
7018;BME280;3549;42.162;24.726;2022-12-05T00:24:14;47918.88;;;-141.97;100.00
7018;BME280;3549;42.162;24.726;2022-12-05T00:26:40;47980.41;;;-141.97;100.00
7018;BME280;3549;42.162;24.726;2022-12-05T00:29:05;47903.50;;;-141.97;100.00
7018;BME280;3549;42.162;24.726;2022-12-05T00:31:31;47995.78;;;-141.97;100.00
7018;BME280;3549;42.162;24.726;2022-12-05T00:33:59;47876.59;;;-141.97;100.00
7018;BME280;3549;42.162;24.726;2022-12-05T00:36:28;47918.88;;;-141.97;100.00
7018;BME280;3549;42.162;24.726;2022-12-05T00:38:54;47997.69;;;-141.97;100.00
7018;BME280;3549;42.162;24.726;2022-12-05T00:41:24;47886.22;;;-141.97;100.00
7018;BME280;3549;42.162;24.726;2022-12-05T00:43:50;47988.09;;;-141.97;100.00
7018;BME280;3549;42.162;24.726;2022-12-05T00:46:18;47934.25;;;-141.97;100.00
7018;BME280;3549;42.162;24.726;2022-12-05T00:48:44;47922.72;;;-141.97;100.00
7018;BME280;3549;42.162;24.726;2022-12-05T00:51:16;47874.69;;;-141.97;100.00
7018;BME280;3549;42.162;24.726;2022-12-05T00:53:42;47930.41;;;-141.97;100.00
7018;BME280;3549;42.162;24.726;2022-12-05T00:56:10;47874.69;;;-141.97;100.00
7018;BME280;3549;42.162;24.726;2022-12-05T00:58:36;47882.38;;;-141.97;100.00
7018;BME280;3549;42.162;24.726;2022-12-05T01:01:12;47857.38;;;-141.97;100.00
7018;BME280;3549;42.162;24.726;2022-12-05T01:03:38;47932.34;;;-141.97;100.00
7018;BME280;3549;42.162;24.726;2022-12-05T01:06:04;47932.34;;;-141.97;100.00
7018;BME280;3549;42.162;24.726;2022-12-05T01:08:30;47936.19;;;-141.97;100.00
7018;BME280;3549;42.162;24.726;2022-12-05T01:10:56;47861.22;;;-141.97;100.00
7018;BME280;3549;42.162;24.726;2022-12-05T01:13:23;47916.97;;;-141.97;100.00
7018;BME280;3549;42.162;24.726;2022-12-05T01:15:49;47941.94;;;-141.97;100.00
7018;BME280;3549;42.162;24.726;2022-12-05T01:18:15;48022.69;;;-141.97;100.00
7018;BME280;3549;42.162;24.726;2022-12-05T01:20:41;47915.03;;;-141.97;100.00
7018;BME280;3549;42.162;24.726;2022-12-05T01:23:07;47884.28;;;-141.97;100.00
7018;BME280;3549;42.162;24.726;2022-12-05T01:25:32;47817.00;;;-141.97;100.00
7018;BME280;3549;42.162;24.726;2022-12-05T01:27:58;47961.19;;;-141.97;100.00
7018;BME280;3549;42.162;24.726;2022-12-05T01:30:24;47968.88;;;-141.97;100.00
7018;BME280;3549;42.162;24.726;2022-12-05T01:32:49;47928.50;;;-141.97;100.00
7018;BME280;3549;42.162;24.726;2022-12-05T01:35:15;47920.81;;;-141.97;100.00
7018;BME280;3549;42.162;24.726;2022-12-05T01:37:40;47724.75;;;-141.97;100.00
7018;BME280;3549;42.162;24.726;2022-12-05T01:40:06;47907.34;;;-141.97;100.00
7018;BME280;3549;42.162;24.726;2022-12-05T01:42:32;47932.34;;;-141.97;100.00
7018;BME280;3549;42.162;24.726;2022-12-05T01:45:04;47842.00;;;-141.97;100.00
7018;BME280;3549;42.162;24.726;2022-12-05T01:47:31;47734.34;;;-141.97;100.00
7018;BME280;3549;42.162;24.726;2022-12-05T01:49:58;47911.19;;;-141.97;100.00
7018;BME280;3549;42.162;24.726;2022-12-05T01:52:25;47922.72;;;-141.97;100.00
7018;BME280;3549;42.162;24.726;2022-12-05T01:54:56;47965.03;;;-141.97;100.00
7018;BME280;3549;42.162;24.726;2022-12-05T01:57:24;47972.72;;;-141.97;100.00
7018;BME280;3549;42.162;24.726;2022-12-05T01:59:54;47763.19;;;-141.97;100.00
7018;BME280;3549;42.162;24.726;2022-12-05T02:02:21;47872.75;;;-141.97;100.00
7018;BME280;3549;42.162;24.726;2022-12-05T02:05:11;47915.03;;;-141.97;100.00
7018;BME280;3549;42.162;24.726;2022-12-05T02:07:40;47911.19;;;-141.97;100.00
7018;BME280;3549;42.162;24.726;2022-12-05T02:10:06;47913.13;;;-141.97;100.00
7018;BME280;3549;42.162;24.726;2022-12-05T02:12:32;47743.97;;;-141.97;100.00
7018;BME280;3549;42.162;24.726;2022-12-05T02:15:20;47905.44;;;-141.97;100.00
7018;BME280;3549;42.162;24.726;2022-12-05T02:18:14;47890.06;;;-141.97;100.00
7018;BME280;3549;42.162;24.726;2022-12-05T02:26:29;47909.28;;;-141.97;100.00
7018;BME280;3549;42.162;24.726;2022-12-05T02:32:10;47922.72;;;-141.97;100.00
7018;BME280;3549;42.162;24.726;2022-12-05T02:46:38;47865.06;;;-141.97;100.00
7018;BME280;3549;42.162;24.726;2022-12-05T02:49:08;47922.72;;;-141.97;100.00
7018;BME280;3549;42.162;24.726;2022-12-05T02:51:42;47941.94;;;-141.97;100.00
7018;BME280;3549;42.162;24.726;2022-12-05T02:54:12;47918.88;;;-141.97;100.00
7018;BME280;3549;42.162;24.726;2022-12-05T02:56:43;47901.59;;;-141.97;100.00
7018;BME280;3549;42.162;24.726;2022-12-05T02:59:09;47926.56;;;-141.97;100.00
7018;BME280;3549;42.162;24.726;2022-12-05T03:01:34;47893.91;;;-141.97;100.00
7018;BME280;3549;42.162;24.726;2022-12-05T03:04:02;47926.56;;;-141.97;100.00
7018;BME280;3549;42.162;24.726;2022-12-05T03:06:32;47915.03;;;-141.97;100.00
7018;BME280;3549;42.162;24.726;2022-12-05T03:09:12;47968.88;;;-141.97;100.00
7018;BME280;3549;42.162;24.726;2022-12-05T03:11:45;47888.13;;;-141.97;100.00
7018;BME280;3549;42.162;24.726;2022-12-05T03:14:26;47922.72;;;-141.97;100.00
7018;BME280;3549;42.162;24.726;2022-12-05T03:16:57;47901.59;;;-141.97;100.00
7018;BME280;3549;42.162;24.726;2022-12-05T03:19:29;47915.03;;;-141.97;100.00
7018;BME280;3549;42.162;24.726;2022-12-05T03:22:07;47895.81;;;-141.97;100.00
7018;BME280;3549;42.162;24.726;2022-12-05T03:24:36;47938.09;;;-141.97;100.00
7018;BME280;3549;42.162;24.726;2022-12-05T03:29:50;47886.22;;;-141.97;100.00
7018;BME280;3549;42.162;24.726;2022-12-05T03:32:44;47859.28;;;-141.97;100.00
7018;BME280;3549;42.162;24.726;2022-12-05T03:35:19;47874.69;;;-141.97;100.00
7018;BME280;3549;42.162;24.726;2022-12-05T03:37:55;47890.06;;;-141.97;100.00
7018;BME280;3549;42.162;24.726;2022-12-05T03:46:03;47905.44;;;-141.97;100.00
7018;BME280;3549;42.162;24.726;2022-12-05T03:48:47;47926.56;;;-141.97;100.00
7018;BME280;3549;42.162;24.726;2022-12-05T03:51:19;47895.81;;;-141.97;100.00
7018;BME280;3549;42.162;24.726;2022-12-05T03:53:52;47876.59;;;-141.97;100.00
7018;BME280;3549;42.162;24.726;2022-12-05T03:56:24;47866.97;;;-141.97;100.00
7018;BME280;3549;42.162;24.726;2022-12-05T03:59:10;47907.34;;;-141.97;100.00
7018;BME280;3549;42.162;24.726;2022-12-05T04:01:38;47926.56;;;-141.97;100.00
7018;BME280;3549;42.162;24.726;2022-12-05T04:04:28;47909.28;;;-141.97;100.00
7018;BME280;3549;42.162;24.726;2022-12-05T04:06:57;47922.72;;;-141.97;100.00
7018;BME280;3549;42.162;24.726;2022-12-05T04:09:27;47926.56;;;-141.97;100.00
7018;BME280;3549;42.162;24.726;2022-12-05T04:12:02;47926.56;;;-141.97;100.00
7018;BME280;3549;42.162;24.726;2022-12-05T04:14:41;47855.44;;;-141.97;100.00
7018;BME280;3549;42.162;24.726;2022-12-05T04:20:02;47851.59;;;-141.97;100.00
7018;BME280;3549;42.162;24.726;2022-12-05T04:22:49;47882.38;;;-141.97;100.00
7018;BME280;3549;42.162;24.726;2022-12-05T04:25:16;47899.66;;;-141.97;100.00
7018;BME280;3549;42.162;24.726;2022-12-05T04:28:13;47884.28;;;-141.97;100.00
7018;BME280;3549;42.162;24.726;2022-12-05T04:31:05;47938.09;;;-141.97;100.00
7018;BME280;3549;42.162;24.726;2022-12-05T04:36:46;47903.50;;;-141.97;100.00
7018;BME280;3549;42.162;24.726;2022-12-05T04:39:23;47886.22;;;-141.97;100.00
7018;BME280;3549;42.162;24.726;2022-12-05T04:41:53;47920.81;;;-141.97;100.00
7018;BME280;3549;42.162;24.726;2022-12-05T04:44:23;47928.50;;;-141.97;100.00
7018;BME280;3549;42.162;24.726;2022-12-05T04:46:52;47945.81;;;-141.97;100.00
7018;BME280;3549;42.162;24.726;2022-12-05T04:49:23;47845.84;;;-141.97;100.00
7018;BME280;3549;42.162;24.726;2022-12-05T04:51:53;47920.81;;;-141.97;100.00
7018;BME280;3549;42.162;24.726;2022-12-05T04:54:27;47949.66;;;-141.97;100.00
7018;BME280;3549;42.162;24.726;2022-12-05T04:57:02;47865.06;;;-141.97;100.00
7018;BME280;3549;42.162;24.726;2022-12-05T04:59:30;47926.56;;;-141.97;100.00
7018;BME280;3549;42.162;24.726;2022-12-05T05:02:01;47945.81;;;-141.97;100.00
7018;BME280;3549;42.162;24.726;2022-12-05T05:04:42;47907.34;;;-141.97;100.00
7018;BME280;3549;42.162;24.726;2022-12-05T05:07:11;47922.72;;;-141.97;100.00
7018;BME280;3549;42.162;24.726;2022-12-05T05:09:38;47915.03;;;-141.97;100.00
7018;BME280;3549;42.162;24.726;2022-12-05T05:12:04;47926.56;;;-141.97;100.00
7018;BME280;3549;42.162;24.726;2022-12-05T05:14:29;47945.81;;;-141.97;100.00
7018;BME280;3549;42.162;24.726;2022-12-05T05:16:55;47826.63;;;-141.97;100.00
7018;BME280;3549;42.162;24.726;2022-12-05T05:19:21;47901.59;;;-141.97;100.00
7018;BME280;3549;42.162;24.726;2022-12-05T05:21:47;47818.94;;;-141.97;100.00
7018;BME280;3549;42.162;24.726;2022-12-05T05:24:13;47832.38;;;-141.97;100.00
7018;BME280;3549;42.162;24.726;2022-12-05T05:26:41;47903.50;;;-141.97;100.00
7018;BME280;3549;42.162;24.726;2022-12-05T05:29:07;47899.66;;;-141.97;100.00
7018;BME280;3549;42.162;24.726;2022-12-05T05:31:34;47976.56;;;-141.97;100.00
7018;BME280;3549;42.162;24.726;2022-12-05T05:34:00;47849.69;;;-141.97;100.00
7018;BME280;3549;42.162;24.726;2022-12-05T05:36:26;47868.91;;;-141.97;100.00
7018;BME280;3549;42.162;24.726;2022-12-05T05:38:54;47865.06;;;-141.97;100.00
7018;BME280;3549;42.162;24.726;2022-12-05T05:41:22;47861.22;;;-141.97;100.00
7018;BME280;3549;42.162;24.726;2022-12-05T05:43:49;47911.19;;;-141.97;100.00
7018;BME280;3549;42.162;24.726;2022-12-05T05:46:16;47936.19;;;-141.97;100.00
7018;BME280;3549;42.162;24.726;2022-12-05T05:48:42;47955.41;;;-141.97;100.00
7018;BME280;3549;42.162;24.726;2022-12-05T05:51:10;47915.03;;;-141.97;100.00
7018;BME280;3549;42.162;24.726;2022-12-05T05:53:36;47934.25;;;-141.97;100.00
7018;BME280;3549;42.162;24.726;2022-12-05T05:56:06;47936.19;;;-141.97;100.00
7018;BME280;3549;42.162;24.726;2022-12-05T05:58:32;47895.81;;;-141.97;100.00
7018;BME280;3549;42.162;24.726;2022-12-05T06:01:16;47963.09;;;-141.97;100.00
7018;BME280;3549;42.162;24.726;2022-12-05T06:03:43;47907.34;;;-141.97;100.00
7018;BME280;3549;42.162;24.726;2022-12-05T06:06:11;47938.09;;;-141.97;100.00
7018;BME280;3549;42.162;24.726;2022-12-05T06:08:38;47849.69;;;-141.97;100.00
7018;BME280;3549;42.162;24.726;2022-12-05T06:11:09;47918.88;;;-141.97;100.00
7018;BME280;3549;42.162;24.726;2022-12-05T06:13:34;48003.47;;;-141.97;100.00
7018;BME280;3549;42.162;24.726;2022-12-05T06:16:00;47922.72;;;-141.97;100.00
7018;BME280;3549;42.162;24.726;2022-12-05T06:18:26;47922.72;;;-141.97;100.00
7018;BME280;3549;42.162;24.726;2022-12-05T06:20:56;47913.13;;;-141.97;100.00
7018;BME280;3549;42.162;24.726;2022-12-05T06:23:23;47909.28;;;-141.97;100.00
7018;BME280;3549;42.162;24.726;2022-12-05T06:25:53;47915.03;;;-141.97;100.00
7018;BME280;3549;42.162;24.726;2022-12-05T06:28:20;47897.75;;;-141.97;100.00
7018;BME280;3549;42.162;24.726;2022-12-05T06:30:46;47915.03;;;-141.97;100.00
7018;BME280;3549;42.162;24.726;2022-12-05T06:33:13;47903.50;;;-141.97;100.00
7018;BME280;3549;42.162;24.726;2022-12-05T06:35:39;47842.00;;;-141.97;100.00
7018;BME280;3549;42.162;24.726;2022-12-05T06:38:05;47938.09;;;-141.97;100.00
7018;BME280;3549;42.162;24.726;2022-12-05T06:40:31;47845.84;;;-141.97;100.00
7018;BME280;3549;42.162;24.726;2022-12-05T06:42:56;47965.03;;;-141.97;100.00
7018;BME280;3549;42.162;24.726;2022-12-05T06:45:22;47888.13;;;-141.97;100.00
7018;BME280;3549;42.162;24.726;2022-12-05T06:47:47;48015.00;;;-141.97;100.00
7018;BME280;3549;42.162;24.726;2022-12-05T06:50:12;47915.03;;;-141.97;100.00
7018;BME280;3549;42.162;24.726;2022-12-05T06:52:38;47945.81;;;-141.97;100.00
7018;BME280;3549;42.162;24.726;2022-12-05T06:55:04;47991.94;;;-141.97;100.00
7018;BME280;3549;42.162;24.726;2022-12-05T06:57:30;47907.34;;;-141.97;100.00
7018;BME280;3549;42.162;24.726;2022-12-05T06:59:56;47891.97;;;-141.97;100.00
7018;BME280;3549;42.162;24.726;2022-12-05T07:02:40;47870.81;;;-141.97;100.00
7018;BME280;3549;42.162;24.726;2022-12-05T07:05:07;47988.09;;;-141.97;100.00
7018;BME280;3549;42.162;24.726;2022-12-05T07:07:32;47984.25;;;-141.97;100.00
7018;BME280;3549;42.162;24.726;2022-12-05T07:09:58;48030.38;;;-141.97;100.00
7018;BME280;3549;42.162;24.726;2022-12-05T07:12:23;47924.66;;;-141.97;100.00
7018;BME280;3549;42.162;24.726;2022-12-05T07:14:48;47961.19;;;-141.97;100.00
7018;BME280;3549;42.162;24.726;2022-12-05T07:17:14;47926.56;;;-141.97;100.00
7018;BME280;3549;42.162;24.726;2022-12-05T07:19:39;47849.69;;;-141.97;100.00
7018;BME280;3549;42.162;24.726;2022-12-05T07:22:05;47890.06;;;-141.97;100.00
7018;BME280;3549;42.162;24.726;2022-12-05T07:24:30;47990.00;;;-141.97;100.00
7018;BME280;3549;42.162;24.726;2022-12-05T07:26:56;47961.19;;;-141.97;100.00
7018;BME280;3549;42.162;24.726;2022-12-05T07:29:21;47795.88;;;-141.97;100.00
7018;BME280;3549;42.162;24.726;2022-12-05T07:31:46;47949.66;;;-141.97;100.00
7018;BME280;3549;42.162;24.726;2022-12-05T07:34:12;47795.88;;;-141.97;100.00
7018;BME280;3549;42.162;24.726;2022-12-05T07:36:38;47882.38;;;-141.97;100.00
7018;BME280;3549;42.162;24.726;2022-12-05T07:39:04;47926.56;;;-141.97;100.00
7018;BME280;3549;42.162;24.726;2022-12-05T07:41:31;47915.03;;;-141.97;100.00
7018;BME280;3549;42.162;24.726;2022-12-05T07:43:58;47901.59;;;-141.97;100.00
7018;BME280;3549;42.162;24.726;2022-12-05T07:46:25;47903.50;;;-141.97;100.00
7018;BME280;3549;42.162;24.726;2022-12-05T07:48:52;47868.91;;;-141.97;100.00
7018;BME280;3549;42.162;24.726;2022-12-05T07:51:18;47786.25;;;-141.97;100.00
7018;BME280;3549;42.162;24.726;2022-12-05T07:53:44;47876.59;;;-141.97;100.00
7018;BME280;3549;42.162;24.726;2022-12-05T07:56:11;47907.34;;;-141.97;100.00
7018;BME280;3549;42.162;24.726;2022-12-05T07:58:42;47874.69;;;-141.97;100.00
7018;BME280;3549;42.162;24.726;2022-12-05T08:01:16;47876.59;;;-141.97;100.00
7018;BME280;3549;42.162;24.726;2022-12-05T08:03:43;47861.22;;;-141.97;100.00
7018;BME280;3549;42.162;24.726;2022-12-05T08:06:11;47884.28;;;-141.97;100.00
7018;BME280;3549;42.162;24.726;2022-12-05T08:08:37;48013.06;;;-141.97;100.00
7018;BME280;3549;42.162;24.726;2022-12-05T08:11:04;47922.72;;;-141.97;100.00
7018;BME280;3549;42.162;24.726;2022-12-05T08:13:30;47924.66;;;-141.97;100.00
7018;BME280;3549;42.162;24.726;2022-12-05T08:16:00;47940.03;;;-141.97;100.00
7018;BME280;3549;42.162;24.726;2022-12-05T08:18:25;47907.34;;;-141.97;100.00
7018;BME280;3549;42.162;24.726;2022-12-05T08:20:51;47828.53;;;-141.97;100.00
7018;BME280;3549;42.162;24.726;2022-12-05T08:23:16;47968.88;;;-141.97;100.00
7018;BME280;3549;42.162;24.726;2022-12-05T08:25:41;47888.13;;;-141.97;100.00
7018;BME280;3549;42.162;24.726;2022-12-05T08:28:07;47865.06;;;-141.97;99.99
7018;BME280;3549;42.162;24.726;2022-12-05T08:30:32;47890.06;;;-141.97;99.41
7018;BME280;3549;42.162;24.726;2022-12-05T08:32:58;47928.50;;;-141.97;99.76
7018;BME280;3549;42.162;24.726;2022-12-05T08:35:24;47907.34;;;-141.97;99.38
7018;BME280;3549;42.162;24.726;2022-12-05T08:37:49;47918.88;;;-141.97;100.00
7018;BME280;3549;42.162;24.726;2022-12-05T08:40:16;47872.75;;;-141.97;98.99
7018;BME280;3549;42.162;24.726;2022-12-05T08:42:41;47957.34;;;-141.97;100.00
7018;BME280;3549;42.162;24.726;2022-12-05T08:45:07;47941.94;;;-141.97;99.96
7018;BME280;3549;42.162;24.726;2022-12-05T08:47:32;47907.34;;;-141.97;100.00
7018;BME280;3549;42.162;24.726;2022-12-05T08:49:58;47891.97;;;-141.97;100.00
7018;BME280;3549;42.162;24.726;2022-12-05T08:52:23;47880.44;;;-141.97;100.00
7018;BME280;3549;42.162;24.726;2022-12-05T08:54:49;47922.72;;;-141.97;99.28
7018;BME280;3549;42.162;24.726;2022-12-05T08:57:14;47926.56;;;-141.97;98.62
7018;BME280;3549;42.162;24.726;2022-12-05T08:59:39;47899.66;;;-141.97;98.07
7018;BME280;3549;42.162;24.726;2022-12-05T09:02:05;47891.97;;;-141.97;97.45
7018;BME280;3549;42.162;24.726;2022-12-05T09:04:30;47911.19;;;-141.97;96.61
7018;BME280;3549;42.162;24.726;2022-12-05T09:06:56;47922.72;;;-141.97;97.01
7018;BME280;3549;42.162;24.726;2022-12-05T09:09:21;47895.81;;;-141.97;96.56
7018;BME280;3549;42.162;24.726;2022-12-05T09:11:46;47903.50;;;-141.97;96.29
7018;BME280;3549;42.162;24.726;2022-12-05T09:14:15;47815.09;;;-141.97;96.57
7018;BME280;3549;42.162;24.726;2022-12-05T09:16:42;47880.44;;;-141.97;96.78
7018;BME280;3549;42.162;24.726;2022-12-05T09:19:11;47845.84;;;-141.97;96.58
7018;BME280;3549;42.162;24.726;2022-12-05T09:21:37;47907.34;;;-141.97;96.16
7018;BME280;3549;42.162;24.726;2022-12-05T09:24:03;48005.38;;;-141.97;94.36
7018;BME280;3549;42.162;24.726;2022-12-05T09:26:28;47853.53;;;-141.97;94.40
7018;BME280;3549;42.162;24.726;2022-12-05T09:28:54;47820.84;;;-141.97;94.73
7018;BME280;3549;42.162;24.726;2022-12-05T09:31:22;47909.28;;;-141.97;96.44
7018;BME280;3549;42.162;24.726;2022-12-05T09:33:49;47905.44;;;-141.97;95.36
7018;BME280;3549;42.162;24.726;2022-12-05T09:36:21;47732.44;;;-141.97;94.79
7018;BME280;3549;42.162;24.726;2022-12-05T09:38:47;47822.78;;;-141.97;94.40
7018;BME280;3549;42.162;24.726;2022-12-05T09:50:16;47903.50;;;-141.97;90.36
7018;BME280;3549;42.162;24.726;2022-12-05T09:55:20;47903.50;;;-141.97;90.43
7018;BME280;3549;42.162;24.726;2022-12-05T09:57:53;47884.28;;;-141.97;91.69
7018;BME280;3549;42.162;24.726;2022-12-05T10:00:20;47884.28;;;-141.97;90.61
7018;BME280;3549;42.162;24.726;2022-12-05T10:05:42;47880.44;;;-141.97;91.52
7018;BME280;3549;42.162;24.726;2022-12-05T10:08:19;47945.81;;;-141.97;90.93
7018;BME280;3549;42.162;24.726;2022-12-05T10:15:55;47895.81;;;-141.97;89.38
7018;BME280;3549;42.162;24.726;2022-12-05T10:20:58;47843.91;;;-141.97;88.68
7018;BME280;3549;42.162;24.726;2022-12-05T10:23:31;47886.22;;;-141.97;87.01
7018;BME280;3549;42.162;24.726;2022-12-05T10:26:02;47870.81;;;-141.97;85.60
7018;BME280;3549;42.162;24.726;2022-12-05T10:28:33;47916.97;;;-141.97;84.60
7018;BME280;3549;42.162;24.726;2022-12-05T10:31:03;47813.16;;;-141.97;83.08
7018;BME280;3549;42.162;24.726;2022-12-05T10:33:37;47911.19;;;-141.97;83.17
7018;BME280;3549;42.162;24.726;2022-12-05T10:36:13;47842.00;;;-141.97;83.22
7018;BME280;3549;42.162;24.726;2022-12-05T10:38:39;47859.28;;;-141.97;82.92
7018;BME280;3549;42.162;24.726;2022-12-05T10:41:08;47957.34;;;-141.97;83.44
7018;BME280;3549;42.162;24.726;2022-12-05T10:43:35;47849.69;;;-141.97;83.48
7018;BME280;3549;42.162;24.726;2022-12-05T10:46:04;47882.38;;;-141.97;82.95
7018;BME280;3549;42.162;24.726;2022-12-05T10:48:34;47893.91;;;-141.97;83.77
7018;BME280;3549;42.162;24.726;2022-12-05T10:51:01;47861.22;;;-141.97;83.60
7018;BME280;3549;42.162;24.726;2022-12-05T10:53:31;47893.91;;;-141.97;84.30
7018;BME280;3549;42.162;24.726;2022-12-05T10:56:02;47784.34;;;-141.97;84.29
7018;BME280;3549;42.162;24.726;2022-12-05T10:58:28;47847.75;;;-141.97;83.42
7018;BME280;3549;42.162;24.726;2022-12-05T11:01:06;47901.59;;;-141.97;82.29
7018;BME280;3549;42.162;24.726;2022-12-05T11:03:35;47911.19;;;-141.97;81.45
7018;BME280;3549;42.162;24.726;2022-12-05T11:06:24;47909.28;;;-141.97;81.28
7018;BME280;3549;42.162;24.726;2022-12-05T11:08:52;47965.03;;;-141.97;81.25
7018;BME280;3549;42.162;24.726;2022-12-05T11:11:22;47795.88;;;-141.97;81.34
7018;BME280;3549;42.162;24.726;2022-12-05T11:16:28;47880.44;;;-141.97;81.42
7018;BME280;3549;42.162;24.726;2022-12-05T11:18:54;47886.22;;;-141.97;81.11
7018;BME280;3549;42.162;24.726;2022-12-05T11:21:19;47903.50;;;-141.97;80.68
7018;BME280;3549;42.162;24.726;2022-12-05T11:23:46;47888.13;;;-141.97;81.80
7018;BME280;3549;42.162;24.726;2022-12-05T11:28:42;47876.59;;;-141.97;83.30
7018;BME280;3549;42.162;24.726;2022-12-05T11:33:36;47907.34;;;-141.97;85.10
7018;BME280;3549;42.162;24.726;2022-12-05T11:36:18;47845.84;;;-141.97;85.62
7018;BME280;3549;42.162;24.726;2022-12-05T11:38:44;47847.75;;;-141.97;85.59
7018;BME280;3549;42.162;24.726;2022-12-05T11:51:50;47868.91;;;-141.97;89.06
7018;BME280;3549;42.162;24.726;2022-12-05T11:55:09;47888.13;;;-141.97;87.69
7018;BME280;3549;42.162;24.726;2022-12-05T11:58:10;47884.28;;;-141.97;87.59
7018;BME280;3549;42.162;24.726;2022-12-05T12:05:53;47868.91;;;-141.97;88.66
7018;BME280;3549;42.162;24.726;2022-12-05T12:11:36;47849.69;;;-141.97;87.37
7018;BME280;3549;42.162;24.726;2022-12-05T12:14:24;47872.75;;;-141.97;89.18
7018;BME280;3549;42.162;24.726;2022-12-05T12:17:20;47857.38;;;-141.97;89.46
7018;BME280;3549;42.162;24.726;2022-12-05T12:25:32;47888.13;;;-141.97;87.53
7018;BME280;3549;42.162;24.726;2022-12-05T12:31:05;47891.97;;;-141.97;87.85
7018;BME280;3549;42.162;24.726;2022-12-05T12:36:41;47878.53;;;-141.97;88.90
7018;BME280;3549;42.162;24.726;2022-12-05T12:39:33;47899.66;;;-141.97;88.87
7018;BME280;3549;42.162;24.726;2022-12-05T12:45:04;47888.13;;;-141.97;90.08
7018;BME280;3549;42.162;24.726;2022-12-05T12:50:23;47876.59;;;-141.97;89.69
7018;BME280;3549;42.162;24.726;2022-12-05T13:04:24;47895.81;;;-141.97;87.98
7018;BME280;3549;42.162;24.726;2022-12-05T13:07:09;47901.59;;;-141.97;87.72
7018;BME280;3549;42.162;24.726;2022-12-05T13:12:16;47913.13;;;-141.97;89.69
7018;BME280;3549;42.162;24.726;2022-12-05T13:14:51;47878.53;;;-141.97;89.09
7018;BME280;3549;42.162;24.726;2022-12-05T13:17:19;47934.25;;;-141.97;88.48
7018;BME280;3549;42.162;24.726;2022-12-05T13:19:51;47872.75;;;-141.97;89.36
7018;BME280;3549;42.162;24.726;2022-12-05T13:22:19;47853.53;;;-141.97;89.71
7018;BME280;3549;42.162;24.726;2022-12-05T13:24:46;47924.66;;;-141.97;88.57
7018;BME280;3549;42.162;24.726;2022-12-05T13:27:16;47865.06;;;-141.97;88.71
7018;BME280;3549;42.162;24.726;2022-12-05T13:29:55;47761.25;;;-141.97;87.89
7018;BME280;3549;42.162;24.726;2022-12-05T13:32:34;47874.69;;;-141.97;87.73
7018;BME280;3549;42.162;24.726;2022-12-05T13:37:32;47918.88;;;-141.97;88.66
7018;BME280;3549;42.162;24.726;2022-12-05T13:40:24;47870.81;;;-141.97;89.17
7018;BME280;3549;42.162;24.726;2022-12-05T13:43:11;47922.72;;;-141.97;89.35
7018;BME280;3549;42.162;24.726;2022-12-05T13:45:40;47876.59;;;-141.97;89.22
7018;BME280;3549;42.162;24.726;2022-12-05T13:48:21;47878.53;;;-141.97;88.45
7018;BME280;3549;42.162;24.726;2022-12-05T13:50:53;47884.28;;;-141.97;87.95
7018;BME280;3549;42.162;24.726;2022-12-05T13:56:04;47882.38;;;-141.97;88.53
7018;BME280;3549;42.162;24.726;2022-12-05T14:04:00;47911.19;;;-141.97;88.49
7018;BME280;3549;42.162;24.726;2022-12-05T14:09:03;47880.44;;;-141.97;89.54
7018;BME280;3549;42.162;24.726;2022-12-05T14:11:29;47880.44;;;-141.97;89.46
7018;BME280;3549;42.162;24.726;2022-12-05T14:13:54;47866.97;;;-141.97;90.07
7018;BME280;3549;42.162;24.726;2022-12-05T14:18:52;47878.53;;;-141.97;91.70
7018;BME280;3549;42.162;24.726;2022-12-05T14:21:36;47888.13;;;-141.97;91.75
7018;BME280;3549;42.162;24.726;2022-12-05T14:24:36;47880.44;;;-141.97;92.51
7018;BME280;3549;42.162;24.726;2022-12-05T14:29:55;47886.22;;;-141.97;93.22
7018;BME280;3549;42.162;24.726;2022-12-05T14:32:28;47895.81;;;-141.97;92.82
7018;BME280;3549;42.162;24.726;2022-12-05T14:35:03;47859.28;;;-141.97;93.47
7018;BME280;3549;42.162;24.726;2022-12-05T14:37:37;47884.28;;;-141.97;92.88
7018;BME280;3549;42.162;24.726;2022-12-05T14:40:24;47876.59;;;-141.97;92.75
7018;BME280;3549;42.162;24.726;2022-12-05T14:42:55;47868.91;;;-141.97;92.66
7018;BME280;3549;42.162;24.726;2022-12-05T14:47:56;47886.22;;;-141.97;93.43
7018;BME280;3549;42.162;24.726;2022-12-05T14:50:33;47926.56;;;-141.97;94.37
7018;BME280;3549;42.162;24.726;2022-12-05T14:55:48;47895.81;;;-141.97;94.51
7018;BME280;3549;42.162;24.726;2022-12-05T14:58:18;47926.56;;;-141.97;94.47
7018;BME280;3549;42.162;24.726;2022-12-05T15:00:53;47851.59;;;-141.97;94.92
7018;BME280;3549;42.162;24.726;2022-12-05T15:03:30;47918.88;;;-141.97;96.69
7018;BME280;3549;42.162;24.726;2022-12-05T15:05:57;47838.16;;;-141.97;97.00
7018;BME280;3549;42.162;24.726;2022-12-05T15:08:26;47865.06;;;-141.97;96.55
7018;BME280;3549;42.162;24.726;2022-12-05T15:10:55;47974.63;;;-141.97;97.43
7018;BME280;3549;42.162;24.726;2022-12-05T15:13:23;47793.94;;;-141.97;98.12
7018;BME280;3549;42.162;24.726;2022-12-05T15:15:59;47926.56;;;-141.97;98.37
7018;BME280;3549;42.162;24.726;2022-12-05T15:18:37;47899.66;;;-141.97;98.32